West Olive, MI (49460)

6:36 PM EST on January 19, 2017 (GMT -0500)
Sheldon Dunes | | Change Station
Active Advisory: Flood Warning

Elev 646 ft 42.94 °N, 86.21 °W | Updated 39 seconds ago

Partly Cloudy
Partly Cloudy
34.7 °F
Feels Like 35 °F
N
0.7
Wind Variable Wind from NE
Gusts 1.6 mph

Today
High -- | Low -- °F
--% Chance of Precip.
Yesterday
High -- | Low -- °F
Precip. -- in
Pressure 29.92 in
Visibility -9999.0 miles
Clouds Clear
Windchill 35 °F
Dew Point 28 °F
Humidity 75%
Rainfall 0.00 in
Snow Depth Not available.
8:10 AM 5:40 PM
Waning Gibbous, 50% visible
METAR KBIV 192253Z AUTO 10005KT CLR 02/01 A2990 RMK AO2 SLP131 T00220006 $
Pressure 29.92 in
Visibility -9999.0 miles
Clouds Clear
Windchill 35 °F
Dew Point 28 °F
Humidity 75%
Rainfall 0.00 in
Snow Depth Not available.
8:10 AM 5:40 PM
Waning Gibbous, 50% visible
METAR KBIV 192253Z AUTO 10005KT CLR 02/01 A2990 RMK AO2 SLP131 T00220006 $

Get Your Daily Forecast Email!

Thanks for signing up!

Be on the lookout for a verification email in your inbox.

You'll start receiving the daily forecast at 8 AM.

×

10-Day Weather Forecast

Almanac

Astronomy

Jan. 19, 2017 Rise Set
Actual Time
Civil Twilight
Nautical Twilight
Astronomical Twilight
Moon
Length of Visible Light
Length of Day
Tomorrow will be .
, % of the Moon is Illuminated

Today's Extremes

State Highs State Lows

Community

WunderPhotos

Upload Photos

1,962,540 photos uploaded!

WunderBlog® & News

Nearby

Air Quality

  Air Quality AQ Index Pollutant
Not available.

Snow Depth

Station Depth Elevation

Earthquake Activity

City Distance Mag. Time & Date
Minimum magnitude displayed is 2.5.

Coastal Water Temperatures

Place Temperature

Stations

Nearby Weather Stations

Station Location Temp. Windchill Dew Point Humidity Wind Precip. Elev Updated Type
                   

Watches & Warnings

Flood Warning
Issued: 11:47 AM EST Jan. 19, 2017 – National Weather Service

The Flood Warning continues for
the Grand River at Robinson township.
* Until late Tuesday night.
* At 8:00 am Thursday the stage was 13.8 feet.
* Flood stage is 13.3 feet.
* Minor flooding is occurring and minor flooding is forecast.
* Forecast, the river will continue rising to near 14.0 feet by
Saturday morning. The river will fall below flood stage Tuesday
early afternoon.
* Impact, at 13.9 feet... several homes in vanlopik subdivision are
surrounded by water.
* Flood history, this crest compares to a previous crest of 14.2 feet
on Jan 16 2016.


Lat... Lon 4300 8610 4297 8595 4291 8589 4297 8583
      4304 8591 4307 8610


Duke